Arcata, CA

10:10 PM PST en Diciembre 20, 2014 (GMT -0800)
Arcata | Change Station
CLOSE
Current Station
Aeropuerto
Location: Arcata,
Altura: 217 ft
Estaciones meteorológicas cercanas
Aviso en curso: High Surf Advisory

Alt 217 ft 40.98 °N, 124.10 °W | Updated 17 minutes ago

Lluvia
Lluvia
57 ° F
Sensación térmica 57 ° F
N
8
Viento Variable Viento desde SSE

Hoy
Alta -- | Baja -- ° F
--% Posibilidad de precipitaciones
Ayer
Alta -- | Baja -- ° F
Precip. -- pul
7:37 AM 4:50 PM
Creciente menguante, 1% visible
Presión 30.17 pul
Visibilidad 2.5 Millas
Nubes Nubes dispersas 500 ft
Nublado 900 ft
Punto de rocío 56 ° F
Humedad 96%
Precipitaciones 1.69 pul
Espesor de la nieve No disponible.
UV 0 de una escala de 12
Polen .70 de una escala de 12
Calidad del aire No disponible.
Flu Activity No disponible.
METAR KACV 210553Z AUTO 16007KT 2 1/2SM -RA BR SCT005 OVC009 14/13 A3015 RMK AO2 SLP217 P0007 60044 T01390133 10139 20128 50005

More Conditions Fewer Conditions

Presión 30.17 pul
Visibilidad 2.5 Millas
Nubes Nubes dispersas 500 ft
Nublado 900 ft
Punto de rocío 56 ° F
Humedad 96%
Precipitaciones 1.69 pul
Espesor de la nieve No disponible.
UV 0 de una escala de 12
Polen .70 de una escala de 12
Calidad del aire No disponible.
Flu Activity No disponible.
METAR KACV 210553Z AUTO 16007KT 2 1/2SM -RA BR SCT005 OVC009 14/13 A3015 RMK AO2 SLP217 P0007 60044 T01390133 10139 20128 50005

More Conditions Fewer Conditions

10-Day Weather Forecast

Almanac

Astronomía

Dec. 20, 2014 Salida Puesta
Hora real
Crepúsculo civil
Crepúsculo náutico
Crepúsculo astronómico
Luna
Horas de luz
Horas de luz
Tomorrow will be .
, % of the Moon is Illuminated

Extremos de hoy

Máximos del estado Bajos del estado

Community

WunderPhotos

Upload Photos

1,779,360 ¡fotos cargadas!

WunderBlogs® & News

Nearby

Calidad del aire

  Calidad del aire Índice AQ Contaminante
Not available.

Grosos de nieve

Estación Profundido Altura

Actividad de terremotos

Ciudad Distance Mag. Tiempo y dato
Magnitud mínima muestra es 2,5.

Temperaturas de aguas costeras

Lugar Temperatura

Estaciones meteorológicas cercanas